Time;durP1;ratioP1;P1;durP2;ratioP2;P2;SDS_P1;SDS_P2;PMS_P1;PMS_P2;Temp;Humidity;BMP_temperature;BMP_pressure;BME280_temperature;BME280_humidity;BME280_pressure;Samples;Min_cycle;Max_cycle;Signal;HPM_P1;HPM_P2
2023/12/09 00:02:00;;;;;;;;;;;0.70;99.90;;;;;;5021609;28;19929;-63
2023/12/09 00:04:27;;;;;;;;;;;0.70;99.90;;;;;;5023546;28;19929;-62
2023/12/09 00:06:54;;;;;;;;;;;0.70;99.90;;;;;;5020918;28;20448;-63
2023/12/09 00:09:21;;;;;;;;;;;0.70;99.90;;;;;;5023327;28;20310;-62
2023/12/09 00:11:48;;;;;;;;;;;0.70;99.90;;;;;;5022375;28;19933;-60
2023/12/09 00:14:15;;;;;;;;;;;0.70;99.90;;;;;;5023519;28;19928;-64
2023/12/09 00:16:42;;;;;;;;;;;0.70;99.90;;;;;;5035621;28;20007;-63
2023/12/09 00:19:09;;;;;;;;;;;0.70;99.90;;;;;;5039318;28;19964;-62
2023/12/09 00:21:36;;;;;;;;;;;0.70;99.90;;;;;;5034539;28;20439;-63
2023/12/09 00:24:03;;;;;;;;;;;0.70;99.90;;;;;;5035477;28;19933;-61
2023/12/09 00:26:31;;;;;;;;;;;0.70;99.90;;;;;;5038281;28;19975;-60
2023/12/09 00:28:58;;;;;;;;;;;0.70;99.90;;;;;;5037923;28;20060;-65
2023/12/09 00:31:25;;;;;;;;;;;0.70;99.90;;;;;;5036596;28;19980;-66
2023/12/09 00:33:52;;;;;;;;;;;0.70;99.90;;;;;;5037600;28;20433;-64
2023/12/09 00:36:19;;;;;;;;;;;0.60;99.90;;;;;;5036702;28;20388;-62
2023/12/09 00:38:46;;;;;;;;;;;0.60;99.90;;;;;;5033889;28;19991;-66
2023/12/09 00:41:13;;;;;;;;;;;0.60;99.90;;;;;;5041522;28;19933;-60
2023/12/09 00:43:40;;;;;;;;;;;0.60;99.90;;;;;;5040362;28;19971;-60
2023/12/09 00:46:06;;;;;;;;;;;0.60;99.90;;;;;;5040977;28;20033;-65
2023/12/09 00:48:33;;;;;;;;;;;0.70;99.90;;;;;;5040808;28;19932;-65
2023/12/09 00:51:01;;;;;;;;;;;0.60;99.90;;;;;;5040188;28;20304;-64
2023/12/09 00:53:28;;;;;;;;;;;0.60;99.90;;;;;;5039168;28;20323;-67
2023/12/09 00:55:55;;;;;;;;;;;0.70;99.90;;;;;;5041854;28;19933;-59
2023/12/09 00:58:21;;;;;;;;;;;0.60;99.90;;;;;;5040892;28;20023;-64
2023/12/09 01:00:48;;;;;;;;;;;0.60;99.90;;;;;;5041218;28;20473;-67
2023/12/09 01:03:15;;;;;;;;;;;0.70;99.90;;;;;;5040387;28;19939;-64
2023/12/09 01:05:42;;;;;;;;;;;0.60;99.90;;;;;;5040177;28;19933;-66
2023/12/09 01:08:09;;;;;;;;;;;0.60;99.90;;;;;;5040265;28;19932;-61
2023/12/09 01:10:36;;;;;;;;;;;0.60;99.90;;;;;;5037796;28;20529;-65
2023/12/09 01:13:03;;;;;;;;;;;0.60;99.90;;;;;;5040925;28;19940;-65
2023/12/09 01:15:29;;;;;;;;;;;0.60;99.90;;;;;;5028309;28;19933;-64
2023/12/09 01:17:56;;;;;;;;;;;0.60;99.90;;;;;;5039670;28;19942;-64
2023/12/09 01:20:24;;;;;;;;;;;0.60;99.90;;;;;;5039994;28;19933;-64
2023/12/09 01:22:51;;;;;;;;;;;0.60;99.90;;;;;;5039294;28;21332;-65
2023/12/09 01:25:18;;;;;;;;;;;0.60;99.90;;;;;;5038593;28;19939;-67
2023/12/09 01:27:45;;;;;;;;;;;0.60;99.90;;;;;;5039730;28;20070;-64
2023/12/09 01:30:12;;;;;;;;;;;0.60;99.90;;;;;;5039787;28;19936;-66
2023/12/09 01:32:40;;;;;;;;;;;0.60;99.90;;;;;;5039040;28;19940;-61
2023/12/09 01:35:10;;;;;;;;;;;0.60;99.90;;;;;;5036459;28;19935;-59
2023/12/09 01:37:39;;;;;;;;;;;0.60;99.90;;;;;;5040670;28;20036;-67
2023/12/09 01:40:06;;;;;;;;;;;0.60;99.90;;;;;;5038932;28;20014;-66
2023/12/09 01:42:33;;;;;;;;;;;0.60;99.90;;;;;;5038544;28;19932;-60
2023/12/09 01:44:59;;;;;;;;;;;0.60;99.90;;;;;;5039243;28;19952;-62
2023/12/09 01:47:26;;;;;;;;;;;0.60;99.90;;;;;;5039580;28;20543;-64
2023/12/09 01:49:53;;;;;;;;;;;0.60;99.90;;;;;;5038960;28;20022;-65
2023/12/09 01:52:20;;;;;;;;;;;0.60;99.90;;;;;;5039648;28;20043;-62
2023/12/09 01:54:47;;;;;;;;;;;0.60;99.90;;;;;;5039685;28;20031;-64
2023/12/09 01:57:14;;;;;;;;;;;0.60;99.90;;;;;;5035552;28;19933;-63
2023/12/09 01:59:41;;;;;;;;;;;0.60;99.90;;;;;;5039064;28;20307;-62
2023/12/09 02:02:07;;;;;;;;;;;0.60;99.90;;;;;;5035273;28;19935;-62
2023/12/09 02:04:34;;;;;;;;;;;0.60;99.90;;;;;;5038647;28;19940;-66
2023/12/09 02:07:01;;;;;;;;;;;0.60;99.90;;;;;;5035875;28;20052;-60
2023/12/09 02:09:28;;;;;;;;;;;0.60;99.90;;;;;;5025475;28;21344;-61
2023/12/09 02:12:00;;;;;;;;;;;0.60;99.90;;;;;;5040121;28;19933;-61
2023/12/09 02:14:40;;;;;;;;;;;0.60;99.90;;;;;;5022878;28;19986;-63
2023/12/09 02:17:12;;;;;;;;;;;0.60;99.90;;;;;;5039697;28;20023;-65
2023/12/09 02:19:39;;;;;;;;;;;0.60;99.90;;;;;;5039045;28;20281;-65
2023/12/09 02:22:06;;;;;;;;;;;0.60;99.90;;;;;;5039556;28;20013;-63
2023/12/09 02:24:33;;;;;;;;;;;0.60;99.90;;;;;;5039839;28;20910;-63
2023/12/09 02:27:11;;;;;;;;;;;0.50;99.90;;;;;;5038909;28;19943;-67
2023/12/09 02:29:44;;;;;;;;;;;0.50;99.90;;;;;;5037800;28;20504;-59
2023/12/09 02:32:14;;;;;;;;;;;0.50;99.90;;;;;;5039427;28;19936;-65
2023/12/09 02:34:41;;;;;;;;;;;0.50;99.90;;;;;;5022484;28;20347;-61
2023/12/09 02:37:09;;;;;;;;;;;0.50;99.90;;;;;;5037819;28;20031;-65
2023/12/09 02:39:36;;;;;;;;;;;0.50;99.90;;;;;;5039386;28;20414;-64
2023/12/09 02:42:04;;;;;;;;;;;0.50;99.90;;;;;;5037030;28;20018;-64
2023/12/09 02:44:31;;;;;;;;;;;0.50;99.90;;;;;;5039673;28;19940;-69
2023/12/09 02:46:58;;;;;;;;;;;0.50;99.90;;;;;;5038516;28;19995;-65
2023/12/09 02:49:25;;;;;;;;;;;0.50;99.90;;;;;;5038507;28;20562;-62
2023/12/09 02:51:52;;;;;;;;;;;0.60;99.90;;;;;;5039514;28;20275;-65
2023/12/09 02:54:18;;;;;;;;;;;0.60;99.90;;;;;;5039168;28;19967;-65
2023/12/09 02:56:45;;;;;;;;;;;0.50;99.90;;;;;;5038309;28;20024;-66
2023/12/09 02:59:12;;;;;;;;;;;0.50;99.90;;;;;;5037599;28;20021;-61
2023/12/09 03:01:39;;;;;;;;;;;0.50;99.90;;;;;;5036416;28;19951;-64
2023/12/09 03:04:06;;;;;;;;;;;0.50;99.90;;;;;;5037149;28;19975;-63
2023/12/09 03:06:33;;;;;;;;;;;0.50;99.90;;;;;;5038320;28;19933;-65
2023/12/09 03:08:59;;;;;;;;;;;0.50;99.90;;;;;;5037524;28;20314;-61
2023/12/09 03:11:26;;;;;;;;;;;0.50;99.90;;;;;;5038514;28;19932;-65
2023/12/09 03:13:53;;;;;;;;;;;0.50;99.90;;;;;;5038386;28;20415;-65
2023/12/09 03:16:20;;;;;;;;;;;0.40;99.90;;;;;;5035203;28;19929;-65
2023/12/09 03:18:47;;;;;;;;;;;0.50;99.90;;;;;;5034356;28;20027;-64
2023/12/09 03:21:15;;;;;;;;;;;0.40;99.90;;;;;;5037880;28;19939;-60
2023/12/09 03:23:42;;;;;;;;;;;0.40;99.90;;;;;;5031706;28;20366;-60
2023/12/09 03:26:16;;;;;;;;;;;0.40;99.90;;;;;;5036223;28;19979;-61
2023/12/09 03:28:43;;;;;;;;;;;0.40;99.90;;;;;;5036897;28;19948;-65
2023/12/09 03:31:11;;;;;;;;;;;0.40;99.90;;;;;;5036093;28;19998;-68
2023/12/09 03:33:38;;;;;;;;;;;0.40;99.90;;;;;;5035162;28;19932;-67
2023/12/09 03:36:05;;;;;;;;;;;0.40;99.90;;;;;;5035842;28;20030;-61
2023/12/09 03:38:32;;;;;;;;;;;0.40;99.90;;;;;;5038705;28;19929;-68
2023/12/09 03:40:59;;;;;;;;;;;0.30;99.90;;;;;;5036072;28;19994;-62
2023/12/09 03:43:26;;;;;;;;;;;0.30;99.90;;;;;;5037745;28;20020;-64
2023/12/09 03:45:52;;;;;;;;;;;0.30;99.90;;;;;;5035511;28;19929;-67
2023/12/09 03:48:19;;;;;;;;;;;0.30;99.90;;;;;;5035385;28;20032;-66
2023/12/09 03:50:46;;;;;;;;;;;0.30;99.90;;;;;;5037971;28;20044;-66
2023/12/09 03:53:13;;;;;;;;;;;0.30;99.90;;;;;;5036090;28;20536;-64
2023/12/09 03:55:40;;;;;;;;;;;0.30;99.90;;;;;;5035916;28;20012;-64
2023/12/09 03:58:08;;;;;;;;;;;0.30;99.90;;;;;;5036871;28;19929;-67
2023/12/09 04:00:35;;;;;;;;;;;0.30;99.90;;;;;;5032217;28;20027;-61
2023/12/09 04:03:03;;;;;;;;;;;0.30;99.90;;;;;;5027771;28;19932;-64
2023/12/09 04:05:30;;;;;;;;;;;0.30;99.90;;;;;;5026499;28;20020;-64
2023/12/09 04:07:56;;;;;;;;;;;0.30;99.90;;;;;;5036092;28;19936;-67
2023/12/09 04:10:23;;;;;;;;;;;0.20;99.90;;;;;;5034416;28;19978;-66
2023/12/09 04:12:50;;;;;;;;;;;0.20;99.90;;;;;;5034657;28;19939;-71
2023/12/09 04:15:17;;;;;;;;;;;0.20;99.90;;;;;;5036382;28;20023;-61
2023/12/09 04:17:44;;;;;;;;;;;0.20;99.90;;;;;;5035434;28;19956;-63
2023/12/09 04:20:10;;;;;;;;;;;0.20;99.90;;;;;;5035266;28;19936;-64
2023/12/09 04:22:38;;;;;;;;;;;0.20;99.90;;;;;;5034781;28;19960;-67
2023/12/09 04:25:08;;;;;;;;;;;0.20;99.90;;;;;;5035558;28;19937;-63
2023/12/09 04:27:35;;;;;;;;;;;0.20;99.90;;;;;;5036019;28;19933;-65
2023/12/09 04:30:04;;;;;;;;;;;0.20;99.90;;;;;;5035632;28;19935;-66
2023/12/09 04:32:31;;;;;;;;;;;0.20;99.90;;;;;;5035335;28;19933;-63
2023/12/09 04:34:58;;;;;;;;;;;0.20;99.90;;;;;;5037157;28;19933;-62
2023/12/09 04:37:25;;;;;;;;;;;0.20;99.90;;;;;;5034186;28;19933;-68
2023/12/09 04:39:52;;;;;;;;;;;0.20;99.90;;;;;;5036023;28;19964;-68
2023/12/09 04:42:19;;;;;;;;;;;0.20;99.90;;;;;;5035891;28;19967;-67
2023/12/09 04:44:46;;;;;;;;;;;0.10;99.90;;;;;;5022002;28;20358;-66
2023/12/09 04:47:13;;;;;;;;;;;0.20;99.90;;;;;;5036039;28;19999;-62
2023/12/09 04:49:39;;;;;;;;;;;0.20;99.90;;;;;;5035359;28;20037;-61
2023/12/09 04:52:06;;;;;;;;;;;0.10;99.90;;;;;;5018815;28;19985;-65
2023/12/09 04:54:33;;;;;;;;;;;0.20;99.90;;;;;;5039144;28;20002;-63
2023/12/09 04:57:00;;;;;;;;;;;0.20;99.90;;;;;;5038501;28;19932;-60
2023/12/09 04:59:27;;;;;;;;;;;0.10;99.90;;;;;;5035988;28;20399;-71
2023/12/09 05:01:54;;;;;;;;;;;0.20;99.90;;;;;;5034457;28;19929;-64
2023/12/09 05:04:20;;;;;;;;;;;0.10;99.90;;;;;;5037098;28;19936;-65
2023/12/09 05:06:48;;;;;;;;;;;0.10;99.90;;;;;;5032935;28;19951;-65
2023/12/09 05:09:15;;;;;;;;;;;0.10;99.90;;;;;;5025163;28;19933;-65
2023/12/09 05:11:41;;;;;;;;;;;0.10;99.90;;;;;;5030502;28;19932;-64
2023/12/09 05:14:08;;;;;;;;;;;0.10;99.90;;;;;;5041759;28;19976;-64
2023/12/09 05:16:35;;;;;;;;;;;0.10;99.90;;;;;;5035658;28;19940;-63
2023/12/09 05:19:03;;;;;;;;;;;0.10;99.90;;;;;;5034521;28;20022;-68
2023/12/09 05:21:31;;;;;;;;;;;0.10;99.90;;;;;;5031846;28;19929;-66
2023/12/09 05:24:03;;;;;;;;;;;0.10;99.90;;;;;;5025379;28;19935;-62
2023/12/09 05:26:30;;;;;;;;;;;0.10;99.90;;;;;;5039299;28;19960;-64
2023/12/09 05:28:57;;;;;;;;;;;0.10;99.90;;;;;;5037823;28;20023;-66
2023/12/09 05:31:24;;;;;;;;;;;0.00;99.90;;;;;;5038400;28;20092;-64
2023/12/09 05:33:51;;;;;;;;;;;0.10;99.90;;;;;;5035545;28;19932;-64
2023/12/09 05:36:18;;;;;;;;;;;0.00;99.90;;;;;;5041117;28;19933;-66
2023/12/09 05:38:45;;;;;;;;;;;0.00;99.90;;;;;;5041636;28;19963;-66
2023/12/09 05:41:12;;;;;;;;;;;0.00;99.90;;;;;;5038264;28;19936;-63
2023/12/09 05:43:39;;;;;;;;;;;0.00;99.90;;;;;;5038315;28;19929;-65
2023/12/09 05:46:06;;;;;;;;;;;0.00;99.90;;;;;;5039524;28;20434;-63
2023/12/09 05:48:33;;;;;;;;;;;0.00;99.90;;;;;;5038214;28;19957;-65
2023/12/09 05:51:00;;;;;;;;;;;-0.10;99.90;;;;;;5037451;28;19933;-64
2023/12/09 05:53:27;;;;;;;;;;;-0.10;99.90;;;;;;5038296;28;20027;-61
2023/12/09 05:55:54;;;;;;;;;;;0.00;99.90;;;;;;5038243;28;21346;-61
2023/12/09 05:58:21;;;;;;;;;;;-0.10;99.90;;;;;;5039290;28;19928;-68
2023/12/09 06:00:48;;;;;;;;;;;-0.10;99.90;;;;;;5036966;28;19925;-65
2023/12/09 06:03:15;;;;;;;;;;;-0.10;99.90;;;;;;5038365;28;19929;-62
2023/12/09 06:05:42;;;;;;;;;;;-0.10;99.90;;;;;;5038815;28;19952;-64
2023/12/09 06:08:09;;;;;;;;;;;-0.10;99.90;;;;;;5037625;28;21310;-60
2023/12/09 06:10:35;;;;;;;;;;;-0.10;99.90;;;;;;5038533;28;20006;-64
2023/12/09 06:13:02;;;;;;;;;;;-0.10;99.90;;;;;;5038014;28;20001;-67
2023/12/09 06:15:29;;;;;;;;;;;-0.10;99.90;;;;;;5039351;28;19955;-62
2023/12/09 06:17:56;;;;;;;;;;;-0.10;99.90;;;;;;5039061;28;19932;-64
2023/12/09 06:20:23;;;;;;;;;;;-0.10;99.90;;;;;;5037656;28;20080;-64
2023/12/09 06:22:50;;;;;;;;;;;-0.10;99.90;;;;;;5037443;28;20059;-64
2023/12/09 06:25:16;;;;;;;;;;;-0.10;99.90;;;;;;5037492;28;19983;-66
2023/12/09 06:27:43;;;;;;;;;;;-0.10;99.90;;;;;;5038464;28;19933;-67
2023/12/09 06:30:10;;;;;;;;;;;-0.10;99.90;;;;;;5036709;28;19940;-64
2023/12/09 06:32:38;;;;;;;;;;;-0.20;99.90;;;;;;5036894;28;20394;-61
2023/12/09 06:35:05;;;;;;;;;;;-0.10;99.90;;;;;;5039194;28;20641;-63
2023/12/09 06:37:32;;;;;;;;;;;-0.10;99.90;;;;;;5024879;28;19929;-64
2023/12/09 06:39:59;;;;;;;;;;;-0.20;99.90;;;;;;5030942;28;20006;-63
2023/12/09 06:42:26;;;;;;;;;;;-0.20;99.90;;;;;;5035301;28;19933;-65
2023/12/09 06:44:53;;;;;;;;;;;-0.10;99.90;;;;;;5037263;28;20320;-59
2023/12/09 06:47:20;;;;;;;;;;;-0.10;99.90;;;;;;5038387;28;19932;-64
2023/12/09 06:49:46;;;;;;;;;;;-0.10;99.90;;;;;;5036932;28;19929;-64
2023/12/09 06:52:13;;;;;;;;;;;-0.10;99.90;;;;;;5037917;28;19960;-65
2023/12/09 06:54:40;;;;;;;;;;;-0.10;99.90;;;;;;5037548;28;19967;-64
2023/12/09 06:57:07;;;;;;;;;;;-0.10;99.90;;;;;;5033178;28;20593;-60
2023/12/09 06:59:34;;;;;;;;;;;-0.10;99.90;;;;;;5042851;28;19933;-61
2023/12/09 07:02:01;;;;;;;;;;;-0.10;99.90;;;;;;5037991;28;19951;-67
2023/12/09 07:04:27;;;;;;;;;;;-0.10;99.90;;;;;;5039247;28;19937;-65
2023/12/09 07:06:59;;;;;;;;;;;-0.10;99.90;;;;;;5038139;28;19933;-64
2023/12/09 07:09:26;;;;;;;;;;;-0.10;99.90;;;;;;5037030;28;20438;-63
2023/12/09 07:11:52;;;;;;;;;;;-0.10;99.90;;;;;;5039351;28;20006;-62
2023/12/09 07:14:28;;;;;;;;;;;-0.10;99.90;;;;;;5037639;28;19933;-65
2023/12/09 07:16:55;;;;;;;;;;;-0.10;99.90;;;;;;5037730;28;20071;-61
2023/12/09 07:19:22;;;;;;;;;;;-0.10;99.90;;;;;;5036490;28;19974;-62
2023/12/09 07:21:50;;;;;;;;;;;-0.10;99.90;;;;;;5037604;28;19929;-64
2023/12/09 07:24:17;;;;;;;;;;;-0.10;99.90;;;;;;5037414;28;20379;-63
2023/12/09 07:26:44;;;;;;;;;;;-0.10;99.90;;;;;;5037024;28;19932;-63
2023/12/09 07:29:11;;;;;;;;;;;-0.10;99.90;;;;;;5037716;28;20006;-63
2023/12/09 07:31:38;;;;;;;;;;;-0.10;99.90;;;;;;5037820;28;19929;-64
2023/12/09 07:34:04;;;;;;;;;;;-0.10;99.90;;;;;;5037275;28;19975;-62
2023/12/09 07:36:32;;;;;;;;;;;-0.10;99.90;;;;;;5039138;28;19933;-64
2023/12/09 07:38:58;;;;;;;;;;;-0.10;99.90;;;;;;5035992;28;19929;-64
2023/12/09 07:41:25;;;;;;;;;;;-0.20;99.90;;;;;;5037766;28;19928;-68
2023/12/09 07:43:52;;;;;;;;;;;-0.20;99.90;;;;;;5037265;28;19933;-64
2023/12/09 07:46:19;;;;;;;;;;;-0.20;99.90;;;;;;5036458;28;19979;-61
2023/12/09 07:48:46;;;;;;;;;;;-0.20;99.90;;;;;;5036548;28;20513;-68
2023/12/09 07:51:13;;;;;;;;;;;-0.20;99.90;;;;;;5034381;28;20264;-66
2023/12/09 07:53:39;;;;;;;;;;;-0.20;99.90;;;;;;5036078;28;19933;-62
2023/12/09 07:56:06;;;;;;;;;;;-0.10;99.90;;;;;;5036879;28;20326;-67
2023/12/09 07:58:33;;;;;;;;;;;-0.20;99.90;;;;;;5040342;28;20393;-61
2023/12/09 08:01:01;;;;;;;;;;;-0.10;99.90;;;;;;5035043;28;19932;-61
2023/12/09 08:03:32;;;;;;;;;;;-0.20;99.90;;;;;;5036668;28;19968;-66
2023/12/09 08:05:59;;;;;;;;;;;-0.10;99.90;;;;;;5037092;28;19939;-64
2023/12/09 08:08:27;;;;;;;;;;;-0.10;99.90;;;;;;5036208;28;19954;-64
2023/12/09 08:10:54;;;;;;;;;;;-0.10;99.90;;;;;;5037207;28;20561;-66
2023/12/09 08:13:20;;;;;;;;;;;-0.10;99.90;;;;;;5038239;28;20697;-63
2023/12/09 08:15:47;;;;;;;;;;;-0.10;99.90;;;;;;5028866;28;20281;-67
2023/12/09 08:18:14;;;;;;;;;;;-0.10;99.90;;;;;;5036926;28;19932;-62
2023/12/09 08:20:43;;;;;;;;;;;-0.10;99.90;;;;;;5035577;28;19940;-61
2023/12/09 08:23:09;;;;;;;;;;;-0.10;99.90;;;;;;5035919;28;20078;-60
2023/12/09 08:25:36;;;;;;;;;;;-0.20;99.90;;;;;;5036807;28;20024;-63
2023/12/09 08:28:05;;;;;;;;;;;-0.10;99.90;;;;;;5036543;28;19936;-65
2023/12/09 08:30:32;;;;;;;;;;;-0.10;99.90;;;;;;5037324;28;19939;-62
2023/12/09 08:32:59;;;;;;;;;;;-0.10;99.90;;;;;;5036676;28;20344;-61
2023/12/09 08:35:28;;;;;;;;;;;-0.10;99.90;;;;;;5036091;28;20912;-60
2023/12/09 08:37:55;;;;;;;;;;;-0.10;99.90;;;;;;5037595;28;19936;-63
2023/12/09 08:40:22;;;;;;;;;;;-0.10;99.90;;;;;;5035345;28;19932;-63
2023/12/09 08:42:48;;;;;;;;;;;-0.10;99.90;;;;;;5036557;28;19928;-66
2023/12/09 08:45:16;;;;;;;;;;;-0.10;99.90;;;;;;5037799;28;20015;-66
2023/12/09 08:47:44;;;;;;;;;;;-0.10;99.90;;;;;;5036280;28;20405;-64
2023/12/09 08:50:12;;;;;;;;;;;-0.10;99.90;;;;;;5035920;28;19929;-65
2023/12/09 10:02:07;;;;;;;;;;;0.20;99.90;;;;;;5081439;28;20502;-59
2023/12/09 10:04:34;;;;;;;;;;;0.20;99.90;;;;;;5017688;28;19933;-64
2023/12/09 10:07:02;;;;;;;;;;;0.20;99.90;;;;;;5016245;28;19937;-61
2023/12/09 10:09:28;;;;;;;;;;;0.20;99.90;;;;;;5018184;28;19963;-64
2023/12/09 10:11:55;;;;;;;;;;;0.20;99.90;;;;;;5019903;28;19941;-62
2023/12/09 10:14:23;;;;;;;;;;;0.20;99.90;;;;;;5012965;28;20291;-64
2023/12/09 10:16:50;;;;;;;;;;;0.20;99.90;;;;;;5019238;28;19968;-61
2023/12/09 10:19:19;;;;;;;;;;;0.20;99.90;;;;;;5017298;28;20063;-63
2023/12/09 10:21:46;;;;;;;;;;;0.20;99.90;;;;;;5009090;28;19933;-61
2023/12/09 10:24:13;;;;;;;;;;;0.20;99.90;;;;;;5019129;28;20405;-66
2023/12/09 10:26:40;;;;;;;;;;;0.20;99.90;;;;;;5010622;28;19936;-63
2023/12/09 10:29:07;;;;;;;;;;;0.20;99.90;;;;;;5010074;28;20303;-64
2023/12/09 10:31:35;;;;;;;;;;;0.20;99.90;;;;;;5016635;28;19955;-64
2023/12/09 10:34:03;;;;;;;;;;;0.20;99.90;;;;;;5017683;28;20364;-67
2023/12/09 10:36:30;;;;;;;;;;;0.20;99.90;;;;;;5016446;28;20398;-65
2023/12/09 10:38:57;;;;;;;;;;;0.20;99.90;;;;;;5017520;28;20021;-62
2023/12/09 10:41:25;;;;;;;;;;;0.20;99.90;;;;;;5020227;28;19977;-62
2023/12/09 10:43:52;;;;;;;;;;;0.20;99.90;;;;;;5011094;28;20062;-61
2023/12/09 10:46:19;;;;;;;;;;;0.20;99.90;;;;;;5017960;28;20067;-61
2023/12/09 10:48:46;;;;;;;;;;;0.20;99.90;;;;;;4999825;28;20722;-63
2023/12/09 10:51:13;;;;;;;;;;;0.20;99.90;;;;;;5015304;28;19979;-64
2023/12/09 10:53:40;;;;;;;;;;;0.20;99.90;;;;;;5017768;28;19944;-63
2023/12/09 10:56:07;;;;;;;;;;;0.20;99.90;;;;;;5017137;28;19968;-62
2023/12/09 10:58:36;;;;;;;;;;;0.20;99.90;;;;;;5016471;28;21005;-62
2023/12/09 11:01:07;;;;;;;;;;;0.20;99.90;;;;;;5016878;28;20326;-66
2023/12/09 11:03:34;;;;;;;;;;;0.20;99.90;;;;;;5014883;28;19929;-64
2023/12/09 11:06:03;;;;;;;;;;;0.30;99.90;;;;;;5015302;28;19929;-63
2023/12/09 11:08:29;;;;;;;;;;;0.30;99.90;;;;;;5014847;28;21372;-65
2023/12/09 11:10:57;;;;;;;;;;;0.20;99.90;;;;;;5015542;28;20034;-66
2023/12/09 11:13:24;;;;;;;;;;;0.30;99.90;;;;;;5015280;28;20015;-61
2023/12/09 11:16:07;;;;;;;;;;;0.20;99.90;;;;;;5015726;28;19929;-64
2023/12/09 11:18:33;;;;;;;;;;;0.30;99.90;;;;;;5015864;28;20053;-64
2023/12/09 11:21:01;;;;;;;;;;;0.20;99.90;;;;;;5015350;28;19933;-62
2023/12/09 11:23:30;;;;;;;;;;;0.20;99.90;;;;;;5015549;28;20028;-65
2023/12/09 11:25:57;;;;;;;;;;;0.20;99.90;;;;;;5015030;28;20338;-61
2023/12/09 11:28:24;;;;;;;;;;;0.30;99.90;;;;;;5017394;28;19933;-66
2023/12/09 11:30:55;;;;;;;;;;;0.20;99.90;;;;;;5014559;28;19945;-66
2023/12/09 11:33:22;;;;;;;;;;;0.20;99.90;;;;;;5016487;28;19964;-65
2023/12/09 11:35:50;;;;;;;;;;;0.20;99.90;;;;;;5015071;28;19933;-67
2023/12/09 11:38:17;;;;;;;;;;;0.20;99.90;;;;;;5015201;28;20042;-65
2023/12/09 11:40:44;;;;;;;;;;;0.20;99.90;;;;;;5015856;28;20013;-63
2023/12/09 11:43:11;;;;;;;;;;;0.20;99.90;;;;;;5015651;28;19972;-64
2023/12/09 11:45:39;;;;;;;;;;;0.20;99.90;;;;;;5016090;28;19979;-65
2023/12/09 11:48:06;;;;;;;;;;;0.20;99.90;;;;;;5016663;28;19933;-60
2023/12/09 11:50:33;;;;;;;;;;;0.20;99.90;;;;;;5015969;28;19933;-64
2023/12/09 11:53:00;;;;;;;;;;;0.20;99.90;;;;;;5016168;28;20387;-65
2023/12/09 11:55:27;;;;;;;;;;;0.20;99.90;;;;;;5014399;28;20415;-66
2023/12/09 11:57:54;;;;;;;;;;;0.20;99.90;;;;;;5015625;28;19937;-60
2023/12/09 12:00:21;;;;;;;;;;;0.20;99.90;;;;;;5017267;28;19940;-60
2023/12/09 12:02:48;;;;;;;;;;;0.20;99.90;;;;;;5023782;28;20842;-63
2023/12/09 12:05:15;;;;;;;;;;;0.20;99.90;;;;;;5034039;28;19925;-63
2023/12/09 12:07:42;;;;;;;;;;;0.20;99.90;;;;;;5035901;28;19929;-64
2023/12/09 12:10:10;;;;;;;;;;;0.20;99.90;;;;;;5021431;28;19932;-62
2023/12/09 12:12:37;;;;;;;;;;;0.20;99.90;;;;;;5032804;28;19956;-66
2023/12/09 12:15:04;;;;;;;;;;;0.20;99.90;;;;;;5035555;28;19939;-63
2023/12/09 12:17:39;;;;;;;;;;;0.20;99.90;;;;;;5036733;28;19932;-68
2023/12/09 12:20:06;;;;;;;;;;;0.20;99.90;;;;;;5036277;28;19947;-61
2023/12/09 12:22:33;;;;;;;;;;;0.20;99.90;;;;;;5037290;28;19932;-62
2023/12/09 12:25:00;;;;;;;;;;;0.20;99.90;;;;;;5037452;28;20032;-64
2023/12/09 12:27:27;;;;;;;;;;;0.20;99.90;;;;;;5035694;28;19928;-64
2023/12/09 12:29:54;;;;;;;;;;;0.20;99.90;;;;;;5036804;28;19929;-64
2023/12/09 12:32:22;;;;;;;;;;;0.20;99.90;;;;;;5035572;28;19982;-63
2023/12/09 12:34:50;;;;;;;;;;;0.20;99.90;;;;;;5037967;28;20673;-63
2023/12/09 12:37:17;;;;;;;;;;;0.20;99.90;;;;;;5041275;28;19933;-66
2023/12/09 12:39:45;;;;;;;;;;;0.20;99.90;;;;;;5039608;28;20465;-67
2023/12/09 12:42:11;;;;;;;;;;;0.20;99.90;;;;;;5039058;28;20567;-65
2023/12/09 12:44:41;;;;;;;;;;;0.20;99.90;;;;;;5039551;28;19933;-62
2023/12/09 12:47:07;;;;;;;;;;;0.20;99.90;;;;;;5041087;28;19932;-66
2023/12/09 12:49:37;;;;;;;;;;;0.20;99.90;;;;;;5037359;28;20365;-64
2023/12/09 12:52:05;;;;;;;;;;;0.20;99.90;;;;;;5042985;28;19932;-69
2023/12/09 12:54:32;;;;;;;;;;;0.20;99.90;;;;;;5040492;28;20026;-64
2023/12/09 12:56:59;;;;;;;;;;;0.20;99.90;;;;;;5037565;28;19933;-65
2023/12/09 12:59:26;;;;;;;;;;;0.20;99.90;;;;;;5040608;28;19929;-63
2023/12/09 13:01:52;;;;;;;;;;;0.20;99.90;;;;;;5039241;28;19964;-62
2023/12/09 13:04:21;;;;;;;;;;;0.20;99.90;;;;;;5040594;28;20933;-60
2023/12/09 13:06:48;;;;;;;;;;;0.20;99.90;;;;;;5024351;28;20772;-65
2023/12/09 13:09:15;;;;;;;;;;;0.20;99.90;;;;;;5040278;28;19932;-65
2023/12/09 13:11:42;;;;;;;;;;;0.20;99.90;;;;;;5038646;28;19939;-61
2023/12/09 13:14:09;;;;;;;;;;;0.20;99.90;;;;;;5040144;28;19978;-60
2023/12/09 13:16:37;;;;;;;;;;;0.20;99.90;;;;;;5039386;28;19929;-65
2023/12/09 13:19:04;;;;;;;;;;;0.10;99.90;;;;;;5039950;28;19932;-60
2023/12/09 13:21:31;;;;;;;;;;;0.10;99.90;;;;;;5038718;28;20369;-67
2023/12/09 13:23:57;;;;;;;;;;;0.20;99.90;;;;;;5040348;28;19940;-62
2023/12/09 13:26:24;;;;;;;;;;;0.10;99.90;;;;;;5037593;28;19933;-61
2023/12/09 13:28:51;;;;;;;;;;;0.10;99.90;;;;;;5038772;28;19955;-62
2023/12/09 13:31:18;;;;;;;;;;;0.10;99.90;;;;;;5038256;28;20031;-63
2023/12/09 13:33:45;;;;;;;;;;;0.20;99.90;;;;;;5038311;28;20582;-61
2023/12/09 13:36:12;;;;;;;;;;;0.20;99.90;;;;;;5034766;28;19933;-65
2023/12/09 13:38:39;;;;;;;;;;;0.10;99.90;;;;;;5037863;28;20294;-64
2023/12/09 13:41:06;;;;;;;;;;;0.10;99.90;;;;;;5038855;28;20094;-62
2023/12/09 13:43:33;;;;;;;;;;;0.10;99.90;;;;;;5037395;28;19952;-68
2023/12/09 13:46:00;;;;;;;;;;;0.10;99.90;;;;;;5036332;28;19980;-64
2023/12/09 13:48:27;;;;;;;;;;;0.10;99.90;;;;;;5038584;28;19929;-62
2023/12/09 13:50:54;;;;;;;;;;;0.10;99.90;;;;;;5038387;28;19929;-66
2023/12/09 13:53:21;;;;;;;;;;;0.10;99.90;;;;;;5038420;28;19933;-62
2023/12/09 13:55:48;;;;;;;;;;;0.10;99.90;;;;;;5036451;28;20037;-69
2023/12/09 13:58:15;;;;;;;;;;;0.10;99.90;;;;;;5039244;28;20248;-63
2023/12/09 14:00:42;;;;;;;;;;;0.10;99.90;;;;;;5040101;28;20411;-69
2023/12/09 14:03:09;;;;;;;;;;;0.10;99.90;;;;;;5036731;28;19937;-66
2023/12/09 14:05:36;;;;;;;;;;;0.10;99.90;;;;;;5037838;28;19929;-63
2023/12/09 14:08:03;;;;;;;;;;;0.10;99.90;;;;;;5036070;28;19986;-63
2023/12/09 14:10:30;;;;;;;;;;;0.10;99.90;;;;;;5037612;28;19933;-60
2023/12/09 14:12:57;;;;;;;;;;;0.10;99.90;;;;;;5039977;28;19932;-66
2023/12/09 14:15:24;;;;;;;;;;;0.10;99.90;;;;;;5038325;28;20008;-70
2023/12/09 14:17:50;;;;;;;;;;;0.10;99.90;;;;;;5034109;28;19929;-65
2023/12/09 14:20:19;;;;;;;;;;;0.10;99.90;;;;;;5038351;28;19933;-66
2023/12/09 14:22:46;;;;;;;;;;;0.10;99.90;;;;;;5043452;28;20330;-70
2023/12/09 14:25:13;;;;;;;;;;;0.10;99.90;;;;;;5040071;28;20453;-67
2023/12/09 14:27:40;;;;;;;;;;;0.10;99.90;;;;;;5044762;28;19940;-65
2023/12/09 14:30:10;;;;;;;;;;;0.10;99.90;;;;;;5037979;28;19940;-70
2023/12/09 14:32:38;;;;;;;;;;;0.10;99.90;;;;;;5038405;28;20067;-62
2023/12/09 14:35:06;;;;;;;;;;;0.10;99.90;;;;;;5031455;28;19964;-66
2023/12/09 14:37:33;;;;;;;;;;;0.10;99.90;;;;;;5031399;28;20298;-61
2023/12/09 14:40:01;;;;;;;;;;;0.10;99.90;;;;;;5038268;28;19955;-64
2023/12/09 14:42:28;;;;;;;;;;;0.10;99.90;;;;;;5039574;28;20391;-67
2023/12/09 14:44:55;;;;;;;;;;;0.10;99.90;;;;;;5041817;28;20476;-67
2023/12/09 14:47:22;;;;;;;;;;;0.10;99.90;;;;;;5038974;28;20608;-66
2023/12/09 14:49:49;;;;;;;;;;;0.10;99.90;;;;;;5036344;28;19960;-66
2023/12/09 14:52:16;;;;;;;;;;;0.10;99.90;;;;;;5037027;28;19940;-63
2023/12/09 14:54:42;;;;;;;;;;;0.10;99.90;;;;;;5038144;28;20726;-67
2023/12/09 14:57:10;;;;;;;;;;;0.10;99.90;;;;;;5036785;28;19928;-63
2023/12/09 14:59:37;;;;;;;;;;;0.10;99.90;;;;;;5036540;28;20016;-67
2023/12/09 15:02:04;;;;;;;;;;;0.10;99.90;;;;;;5040141;28;20042;-67
2023/12/09 15:04:31;;;;;;;;;;;0.10;99.90;;;;;;5041696;28;19933;-62
2023/12/09 15:06:57;;;;;;;;;;;0.10;99.90;;;;;;5034646;28;20378;-65
2023/12/09 15:09:25;;;;;;;;;;;0.10;99.90;;;;;;5035735;28;19933;-62
2023/12/09 15:11:52;;;;;;;;;;;0.10;99.90;;;;;;5036735;28;20310;-69
2023/12/09 15:14:19;;;;;;;;;;;0.10;99.90;;;;;;5039927;28;19932;-65
2023/12/09 15:16:46;;;;;;;;;;;0.00;99.90;;;;;;5035702;28;20039;-65
2023/12/09 15:19:12;;;;;;;;;;;0.10;99.90;;;;;;5038260;28;20411;-67
2023/12/09 15:21:39;;;;;;;;;;;0.10;99.90;;;;;;5034935;28;19933;-64
2023/12/09 15:24:06;;;;;;;;;;;0.10;99.90;;;;;;5037296;28;19939;-62
2023/12/09 15:26:33;;;;;;;;;;;0.10;99.90;;;;;;5036231;28;19929;-63
2023/12/09 15:29:00;;;;;;;;;;;0.10;99.90;;;;;;5038299;28;19978;-62
2023/12/09 15:31:27;;;;;;;;;;;0.10;99.90;;;;;;5035933;28;19940;-64
2023/12/09 15:33:54;;;;;;;;;;;0.10;99.90;;;;;;5040139;28;19933;-61
2023/12/09 15:36:21;;;;;;;;;;;0.10;99.90;;;;;;5033732;28;19937;-66